Time;durP1;ratioP1;P1;durP2;ratioP2;P2;SDS_P1;SDS_P2;PMS_P1;PMS_P2;Temp;Humidity;BMP_temperature;BMP_pressure;BME280_temperature;BME280_humidity;BME280_pressure;Samples;Min_cycle;Max_cycle;Signal;HPM_P1;HPM_P2
2022/10/30 00:03:34;;;;;;;13.68;8.93;;;16.20;82.00;;;;;;10916263;32;20027;-78
2022/10/30 00:09:36;;;;;;;14.70;10.43;;;16.20;82.10;;;;;;10912106;32;20049;-78
2022/10/30 00:15:38;;;;;;;13.43;10.05;;;16.20;82.10;;;;;;10916123;32;20023;-78
2022/10/30 00:21:40;;;;;;;12.95;10.07;;;16.20;82.40;;;;;;10511951;27;12112704;-78
2022/10/30 00:27:42;;;;;;;14.57;8.23;;;16.10;82.60;;;;;;10651255;33;20048;-78
2022/10/30 00:33:49;;;;;;;13.15;9.23;;;16.00;82.50;;;;;;10650854;33;20022;-78
2022/10/30 00:39:51;;;;;;;11.15;8.77;;;16.00;82.50;;;;;;10650195;33;20083;-78
2022/10/30 00:45:53;;;;;;;13.95;9.38;;;15.90;82.50;;;;;;10649467;33;20033;-78
2022/10/30 00:51:55;;;;;;;14.48;7.93;;;15.80;82.50;;;;;;10722615;33;20017;-78
2022/10/30 00:58:00;;;;;;;13.70;9.85;;;15.80;82.50;;;;;;10709597;33;20017;-77
2022/10/30 01:04:04;;;;;;;10.93;6.72;;;15.80;82.60;;;;;;10719127;33;20052;-77
2022/10/30 01:10:08;;;;;;;11.70;8.25;;;15.80;82.50;;;;;;10715737;33;20419;-77
2022/10/30 01:16:45;;;;;;;9.30;7.62;;;15.70;82.60;;;;;;10719000;33;20354;-78
2022/10/30 01:23:02;;;;;;;12.27;8.38;;;15.70;82.60;;;;;;10717186;33;20322;-77
2022/10/30 01:29:27;;;;;;;12.30;7.57;;;15.70;82.70;;;;;;10718764;33;20051;-77
2022/10/30 01:36:07;;;;;;;9.57;6.68;;;15.70;82.70;;;;;;10718432;33;20037;-78
2022/10/30 01:42:29;;;;;;;15.38;9.93;;;15.60;82.70;;;;;;10715237;33;20055;-78
2022/10/30 01:48:43;;;;;;;9.00;6.07;;;15.70;82.70;;;;;;10705273;33;20298;-78
2022/10/30 01:54:57;;;;;;;8.23;6.07;;;15.60;82.70;;;;;;10717890;33;20017;-78
2022/10/30 02:01:00;;;;;;;13.80;8.05;;;15.50;82.80;;;;;;10717821;33;20048;-78
2022/10/30 02:07:04;;;;;;;9.77;7.32;;;15.50;82.80;;;;;;10717110;33;20055;-77
2022/10/30 02:13:09;;;;;;;10.25;6.85;;;15.50;82.70;;;;;;10704677;33;20017;-78
2022/10/30 02:19:11;;;;;;;11.07;6.78;;;15.40;82.90;;;;;;10716524;33;20057;-78
2022/10/30 02:25:14;;;;;;;14.63;10.07;;;15.40;82.90;;;;;;10716970;33;20325;-78
2022/10/30 02:31:18;;;;;;;11.12;8.35;;;15.30;83.10;;;;;;10716960;33;20052;-78
2022/10/30 02:37:24;;;;;;;11.77;9.52;;;15.40;83.30;;;;;;10712574;33;20044;-78
2022/10/30 02:43:26;;;;;;;11.40;8.38;;;15.40;83.50;;;;;;10716715;33;20025;-78
2022/10/30 02:49:28;;;;;;;20.08;10.60;;;15.40;83.50;;;;;;10716282;33;20016;-78
2022/10/30 02:55:30;;;;;;;11.90;9.57;;;15.40;83.40;;;;;;10716158;33;20071;-78
2022/10/30 03:01:33;;;;;;;12.05;8.43;;;15.30;83.40;;;;;;10715947;33;20389;-78
2022/10/30 03:07:35;;;;;;;23.45;9.80;;;15.30;83.30;;;;;;10711666;33;20021;-78
2022/10/30 03:13:39;;;;;;;11.40;8.23;;;15.30;83.50;;;;;;10699722;33;20435;-78
2022/10/30 03:19:41;;;;;;;11.35;9.10;;;15.30;83.50;;;;;;10714826;33;20068;-78
2022/10/30 03:25:44;;;;;;;9.93;7.55;;;15.20;83.50;;;;;;10711207;33;20029;-77
2022/10/30 03:31:46;;;;;;;10.18;8.20;;;15.10;83.60;;;;;;10715200;33;20055;-77
2022/10/30 03:37:49;;;;;;;12.57;9.27;;;15.00;83.50;;;;;;10714820;33;20047;-77
2022/10/30 03:43:52;;;;;;;10.75;7.22;;;15.00;83.50;;;;;;10714812;33;20025;-77
2022/10/30 03:49:56;;;;;;;12.57;9.25;;;15.00;83.50;;;;;;10702159;33;20318;-77
2022/10/30 03:56:00;;;;;;;9.60;8.60;;;14.90;83.50;;;;;;10714487;33;20424;-77
2022/10/30 04:02:03;;;;;;;12.90;9.55;;;14.90;83.50;;;;;;10701558;33;20025;-77
2022/10/30 04:08:10;;;;;;;12.70;9.20;;;14.90;83.40;;;;;;10714333;33;20024;-77
2022/10/30 04:14:12;;;;;;;13.98;10.50;;;15.00;83.40;;;;;;10714317;33;20317;-77
2022/10/30 04:20:14;;;;;;;10.65;8.20;;;14.90;83.40;;;;;;10714101;33;20056;-77
2022/10/30 04:26:18;;;;;;;11.55;8.68;;;14.90;83.70;;;;;;10711729;33;20021;-77
2022/10/30 04:32:20;;;;;;;11.30;8.73;;;14.90;83.60;;;;;;10717046;33;20431;-77
2022/10/30 04:38:22;;;;;;;9.98;7.00;;;14.70;83.50;;;;;;10716158;33;20016;-77
2022/10/30 04:44:32;;;;;;;19.48;8.30;;;14.70;83.60;;;;;;10719810;33;20033;-77
2022/10/30 04:50:34;;;;;;;10.48;9.10;;;14.70;83.60;;;;;;10719885;33;20322;-77
2022/10/30 04:56:37;;;;;;;14.15;9.80;;;14.70;83.60;;;;;;10719539;33;20029;-77
2022/10/30 05:02:40;;;;;;;9.68;7.85;;;14.70;83.50;;;;;;10719400;33;20033;-77
2022/10/30 05:08:42;;;;;;;10.07;6.43;;;14.70;83.40;;;;;;10719256;33;20026;-77
2022/10/30 05:14:45;;;;;;;10.38;6.75;;;14.50;83.50;;;;;;10702232;33;20013;-77
2022/10/30 05:20:48;;;;;;;11.30;9.02;;;14.50;83.60;;;;;;10719024;33;20063;-77
2022/10/30 05:26:50;;;;;;;12.45;8.15;;;14.50;83.80;;;;;;10718527;33;20401;-77
2022/10/30 05:32:57;;;;;;;9.82;7.68;;;14.50;83.80;;;;;;10718689;33;20401;-77
2022/10/30 05:39:01;;;;;;;13.13;10.85;;;14.50;83.80;;;;;;10705629;33;20047;-78
2022/10/30 05:45:05;;;;;;;12.68;9.77;;;14.50;83.70;;;;;;10704651;33;20051;-74
2022/10/30 05:51:08;;;;;;;17.85;8.95;;;14.50;83.70;;;;;;10701357;33;20020;-74
2022/10/30 05:57:11;;;;;;;11.45;8.82;;;14.50;83.70;;;;;;10717750;33;20463;-73
2022/10/30 06:03:14;;;;;;;10.60;8.52;;;14.40;83.80;;;;;;10717465;33;20029;-73
2022/10/30 06:09:16;;;;;;;8.20;5.70;;;14.30;83.80;;;;;;10704552;33;20020;-73
2022/10/30 06:15:19;;;;;;;15.40;11.75;;;14.30;83.80;;;;;;10717369;33;20040;-73
2022/10/30 06:21:21;;;;;;;10.05;7.50;;;14.30;84.20;;;;;;10717102;33;20437;-73
2022/10/30 06:27:23;;;;;;;10.95;8.95;;;14.30;84.10;;;;;;10716874;33;20338;-73
2022/10/30 06:33:25;;;;;;;12.23;8.85;;;14.30;84.10;;;;;;10715980;33;20040;-74
2022/10/30 06:39:34;;;;;;;13.77;8.65;;;14.40;84.30;;;;;;10716485;33;20040;-74
2022/10/30 06:45:41;;;;;;;12.68;9.23;;;14.50;84.30;;;;;;10708197;33;20060;-74
2022/10/30 06:51:43;;;;;;;9.43;7.15;;;14.50;84.20;;;;;;10716216;33;20021;-73
2022/10/30 06:57:52;;;;;;;16.15;7.72;;;14.50;84.10;;;;;;10712792;33;20047;-75
2022/10/30 07:03:55;;;;;;;14.18;6.57;;;14.50;84.10;;;;;;10715891;33;20353;-73
2022/10/30 07:09:57;;;;;;;10.73;8.85;;;14.50;84.10;;;;;;10715355;33;20041;-74
2022/10/30 07:16:15;;;;;;;9.98;6.25;;;14.60;84.30;;;;;;10715641;32;20487;-74
2022/10/30 07:22:17;;;;;;;9.23;5.97;;;14.70;84.20;;;;;;10701492;33;20106;-74
2022/10/30 07:28:21;;;;;;;7.15;4.47;;;14.70;84.20;;;;;;10715467;33;20021;-74
2022/10/30 07:34:23;;;;;;;7.20;4.93;;;14.80;84.30;;;;;;10715095;33;20389;-75
2022/10/30 07:40:26;;;;;;;7.57;4.78;;;14.90;84.30;;;;;;10714865;33;20048;-74
2022/10/30 07:46:28;;;;;;;10.93;7.40;;;15.00;84.20;;;;;;10701988;33;20021;-74
2022/10/30 07:52:32;;;;;;;7.78;4.87;;;15.10;84.30;;;;;;10694736;33;20025;-74
2022/10/30 07:58:36;;;;;;;7.40;5.35;;;15.30;84.30;;;;;;10678396;33;20438;-74
2022/10/30 08:04:42;;;;;;;7.03;4.87;;;15.30;84.30;;;;;;10663786;33;20021;-74
2022/10/30 08:10:48;;;;;;;12.48;6.95;;;15.50;84.10;;;;;;10707849;33;20032;-75
2022/10/30 08:16:51;;;;;;;10.38;7.22;;;15.50;84.10;;;;;;10720462;33;20021;-74
2022/10/30 08:22:57;;;;;;;10.23;6.25;;;15.60;84.00;;;;;;10785973;27;20053;-74
2022/10/30 08:28:59;;;;;;;13.40;6.78;;;15.70;83.80;;;;;;10910494;32;20023;-75
2022/10/30 08:35:12;;;;;;;13.02;10.30;;;15.80;83.60;;;;;;10910319;32;20018;-75
2022/10/30 08:41:14;;;;;;;15.50;10.48;;;15.90;83.40;;;;;;10894991;32;20340;-75
2022/10/30 08:47:17;;;;;;;16.40;10.07;;;15.90;83.20;;;;;;10896751;32;20024;-75
2022/10/30 08:53:20;;;;;;;15.20;9.07;;;16.00;83.00;;;;;;10906634;32;20032;-79
2022/10/30 08:59:22;;;;;;;15.90;13.62;;;16.10;82.90;;;;;;10910472;32;20041;-77
2022/10/30 09:05:52;;;;;;;15.25;9.88;;;16.20;82.70;;;;;;10896735;32;20452;-78
2022/10/30 09:11:55;;;;;;;14.32;8.70;;;16.30;82.60;;;;;;10909848;32;20045;-78
2022/10/30 09:18:01;;;;;;;11.48;9.25;;;16.40;82.40;;;;;;10904488;32;20400;-78
2022/10/30 09:24:03;;;;;;;11.18;8.55;;;16.60;82.40;;;;;;10919016;32;20069;-78
2022/10/30 09:30:13;;;;;;;17.50;11.07;;;16.70;82.20;;;;;;10910850;32;20026;-78
2022/10/30 09:36:17;;;;;;;11.65;9.18;;;16.80;82.10;;;;;;10931398;32;20039;-74
2022/10/30 09:42:43;;;;;;;21.08;11.60;;;17.00;81.90;;;;;;10875177;32;20039;-75
2022/10/30 09:49:14;;;;;;;11.63;8.68;;;17.20;81.50;;;;;;10883140;32;20045;-78
2022/10/30 09:55:46;;;;;;;13.00;9.32;;;17.30;81.20;;;;;;10906816;32;20335;-78
2022/10/30 10:01:53;;;;;;;19.10;10.98;;;17.50;80.90;;;;;;10905793;32;20392;-77
2022/10/30 10:08:03;;;;;;;20.73;11.18;;;17.70;80.60;;;;;;10907300;32;20023;-78
2022/10/30 10:14:17;;;;;;;14.75;11.85;;;17.80;80.00;;;;;;10906931;32;20041;-77
2022/10/30 10:20:36;;;;;;;17.40;9.95;;;18.00;79.90;;;;;;10906895;32;20034;-77
2022/10/30 10:26:49;;;;;;;19.17;11.57;;;18.10;79.60;;;;;;10906545;32;20289;-77
2022/10/30 10:33:25;;;;;;;20.35;13.40;;;18.30;79.20;;;;;;10888550;32;20023;-73
2022/10/30 10:39:53;;;;;;;15.48;12.50;;;18.50;78.80;;;;;;10906065;32;20065;-75
2022/10/30 10:46:05;;;;;;;30.67;18.37;;;18.70;78.50;;;;;;10906018;32;20027;-73
2022/10/30 10:52:12;;;;;;;22.42;14.65;;;18.90;78.20;;;;;;10905578;32;20016;-74
2022/10/30 10:58:29;;;;;;;21.48;12.43;;;19.20;77.80;;;;;;10909314;32;20015;-74
2022/10/30 11:04:44;;;;;;;23.67;15.63;;;19.50;77.30;;;;;;10935132;32;20022;-76
2022/10/30 11:10:50;;;;;;;18.62;11.95;;;19.70;76.50;;;;;;10925413;32;20032;-77
2022/10/30 11:17:14;;;;;;;20.42;12.02;;;19.90;76.00;;;;;;10942177;32;20054;-77
2022/10/30 11:23:45;;;;;;;23.38;16.30;;;20.20;75.80;;;;;;10938271;32;20049;-77
2022/10/30 11:30:05;;;;;;;16.87;11.50;;;20.30;75.30;;;;;;10939476;32;20026;-77
2022/10/30 11:36:13;;;;;;;24.90;16.08;;;20.40;75.20;;;;;;10942607;32;20038;-77
2022/10/30 11:42:17;;;;;;;29.63;17.80;;;20.40;74.60;;;;;;10899352;32;20438;-77
2022/10/30 11:48:27;;;;;;;16.73;12.75;;;20.50;74.50;;;;;;10905683;32;20046;-77
2022/10/30 11:54:34;;;;;;;20.88;14.98;;;20.50;74.20;;;;;;10902561;32;20046;-77
2022/10/30 12:00:39;;;;;;;16.27;13.82;;;20.60;74.20;;;;;;10904134;32;20023;-77
2022/10/30 12:06:44;;;;;;;29.37;16.73;;;20.60;74.10;;;;;;10904214;32;20023;-78
2022/10/30 12:12:50;;;;;;;16.95;13.70;;;20.60;74.00;;;;;;10903936;32;20075;-77
2022/10/30 12:19:15;;;;;;;27.02;15.77;;;20.60;74.00;;;;;;10903782;32;20364;-77
2022/10/30 12:25:37;;;;;;;20.65;14.45;;;20.70;73.80;;;;;;10899430;32;20027;-77
2022/10/30 12:32:01;;;;;;;20.25;15.00;;;20.70;73.90;;;;;;10890315;32;20019;-77
2022/10/30 12:38:08;;;;;;;26.73;16.62;;;20.70;73.90;;;;;;10903386;32;20027;-77
2022/10/30 12:44:19;;;;;;;21.55;13.57;;;20.70;74.00;;;;;;10903520;32;20384;-77
2022/10/30 12:50:33;;;;;;;24.17;18.05;;;20.70;73.90;;;;;;10903570;32;20327;-77
2022/10/30 12:56:52;;;;;;;21.92;16.33;;;20.70;73.90;;;;;;10896888;32;20027;-77
2022/10/30 13:03:24;;;;;;;28.83;18.15;;;20.80;73.80;;;;;;10909323;32;20058;-73
2022/10/30 13:09:33;;;;;;;32.70;19.48;;;20.80;73.70;;;;;;10909192;32;20298;-73
2022/10/30 13:15:48;;;;;;;24.60;18.70;;;20.80;73.40;;;;;;10895632;32;20293;-73
2022/10/30 13:22:01;;;;;;;30.30;24.12;;;21.00;73.00;;;;;;10908644;32;20019;-72
2022/10/30 13:28:14;;;;;;;26.30;18.92;;;21.00;72.80;;;;;;10905989;32;20438;-73
2022/10/30 13:34:31;;;;;;;28.52;15.45;;;21.00;72.80;;;;;;10895358;32;20339;-73
2022/10/30 13:40:41;;;;;;;27.17;21.05;;;21.10;73.00;;;;;;10908300;32;20023;-77
2022/10/30 13:47:14;;;;;;;22.17;15.43;;;21.20;72.60;;;;;;10903858;32;20053;-77
2022/10/30 13:53:23;;;;;;;25.30;17.33;;;21.30;72.50;;;;;;10908259;32;20050;-77
2022/10/30 13:59:38;;;;;;;28.12;17.17;;;21.30;72.50;;;;;;10907319;32;20032;-77
2022/10/30 14:06:04;;;;;;;23.75;16.30;;;21.30;72.50;;;;;;10893437;32;20062;-77
2022/10/30 14:12:55;;;;;;;22.73;14.65;;;21.40;72.50;;;;;;10897820;32;20454;-77
2022/10/30 14:19:23;;;;;;;25.10;15.65;;;21.40;72.40;;;;;;10719530;33;20063;-77
2022/10/30 14:25:25;;;;;;;23.07;15.03;;;21.40;72.30;;;;;;10607272;33;20038;-77
2022/10/30 14:31:35;;;;;;;19.25;13.40;;;21.50;72.40;;;;;;10610711;33;20013;-77
2022/10/30 14:37:37;;;;;;;15.27;11.12;;;21.40;72.50;;;;;;10609503;33;20026;-77
2022/10/30 14:44:04;;;;;;;19.27;13.00;;;21.30;72.80;;;;;;10611073;33;20052;-77
2022/10/30 14:50:24;;;;;;;21.67;11.57;;;21.30;73.00;;;;;;10573149;33;20502;-77
2022/10/30 14:56:40;;;;;;;22.10;12.07;;;21.20;73.20;;;;;;10644276;33;20021;-77
2022/10/30 15:02:56;;;;;;;30.02;13.62;;;21.10;73.50;;;;;;10806263;32;20059;-77
2022/10/30 15:09:41;;;;;;;17.83;12.13;;;21.00;73.80;;;;;;10826812;32;20050;-77
2022/10/30 15:15:45;;;;;;;16.08;11.32;;;21.10;73.80;;;;;;10678695;33;20047;-77
2022/10/30 15:21:55;;;;;;;15.95;10.73;;;20.90;74.20;;;;;;10680093;33;20056;-75
2022/10/30 15:27:58;;;;;;;19.77;12.75;;;20.80;74.60;;;;;;10749143;33;20055;-75
2022/10/30 15:34:00;;;;;;;17.00;11.52;;;20.60;75.10;;;;;;10748366;33;20356;-77
2022/10/30 15:40:19;;;;;;;18.27;11.77;;;20.40;75.50;;;;;;10752696;33;20082;-77
2022/10/30 15:46:22;;;;;;;17.37;11.02;;;20.30;75.90;;;;;;10749950;33;20173;-77
2022/10/30 15:52:26;;;;;;;18.42;10.88;;;20.10;76.20;;;;;;10863302;32;20023;-77
2022/10/30 15:58:33;;;;;;;16.35;10.85;;;20.00;76.40;;;;;;10904207;32;20034;-77
2022/10/30 16:04:36;;;;;;;17.95;11.35;;;19.80;76.70;;;;;;10903948;32;20019;-77
2022/10/30 16:10:40;;;;;;;21.73;13.40;;;19.80;77.00;;;;;;10903940;32;20053;-77
2022/10/30 16:16:44;;;;;;;16.55;12.52;;;19.60;77.20;;;;;;10903881;32;20081;-77
2022/10/30 16:22:46;;;;;;;18.50;13.65;;;19.50;77.30;;;;;;10907720;27;20043;-77
2022/10/30 16:28:49;;;;;;;26.62;14.45;;;19.40;77.50;;;;;;10902675;32;20061;-77
2022/10/30 16:34:59;;;;;;;25.00;17.20;;;19.30;77.60;;;;;;10909898;32;20031;-77
2022/10/30 16:41:07;;;;;;;25.23;14.95;;;19.30;77.70;;;;;;10908228;32;20023;-75
2022/10/30 16:47:24;;;;;;;31.07;15.60;;;19.20;77.90;;;;;;10909489;32;20058;-75
2022/10/30 16:53:27;;;;;;;20.33;14.65;;;19.10;78.00;;;;;;10896221;32;20042;-75
2022/10/30 16:59:31;;;;;;;24.23;16.60;;;19.00;78.20;;;;;;10909421;32;20027;-75
2022/10/30 17:05:35;;;;;;;30.92;17.23;;;18.90;78.30;;;;;;10909310;32;20062;-75
2022/10/30 17:11:43;;;;;;;25.70;17.80;;;18.80;78.30;;;;;;10909296;32;20050;-75
2022/10/30 17:18:10;;;;;;;23.00;17.20;;;18.70;78.40;;;;;;10906201;32;20395;-75
2022/10/30 17:24:19;;;;;;;24.67;18.62;;;18.70;78.60;;;;;;10908449;32;20019;-75
2022/10/30 17:30:42;;;;;;;24.05;18.15;;;18.60;78.60;;;;;;10891628;32;20023;-75
2022/10/30 17:36:45;;;;;;;25.25;19.20;;;18.50;78.60;;;;;;10908339;32;20043;-74
2022/10/30 17:42:48;;;;;;;30.27;20.95;;;18.50;78.70;;;;;;10907372;32;20054;-74
2022/10/30 17:48:50;;;;;;;45.85;23.75;;;18.40;78.70;;;;;;10895039;32;20019;-74
2022/10/30 17:54:52;;;;;;;50.65;26.55;;;18.30;78.90;;;;;;10907670;32;20031;-77
2022/10/30 18:00:57;;;;;;;42.05;25.73;;;18.30;78.90;;;;;;10894413;32;20012;-77
2022/10/30 18:07:01;;;;;;;43.20;21.77;;;18.30;79.00;;;;;;10907392;32;20322;-77
2022/10/30 18:13:22;;;;;;;41.25;22.85;;;18.20;79.10;;;;;;10900099;32;20053;-77
2022/10/30 18:19:25;;;;;;;42.55;25.08;;;18.20;79.20;;;;;;10907052;32;20041;-77
2022/10/30 18:25:34;;;;;;;44.80;24.37;;;18.10;79.20;;;;;;10906378;32;20093;-77
2022/10/30 18:31:37;;;;;;;41.63;18.87;;;18.00;79.40;;;;;;10906860;32;20046;-77
2022/10/30 18:37:40;;;;;;;30.80;19.73;;;18.00;79.40;;;;;;10906568;32;20011;-77
2022/10/30 18:43:43;;;;;;;30.30;22.52;;;18.00;79.50;;;;;;10893207;32;20092;-77
2022/10/30 18:49:45;;;;;;;26.17;20.17;;;17.90;79.50;;;;;;10890307;32;20272;-77
2022/10/30 18:55:51;;;;;;;23.35;19.12;;;17.90;79.60;;;;;;10905704;32;20023;-77
2022/10/30 19:01:54;;;;;;;29.80;19.50;;;17.80;79.70;;;;;;10901735;32;20045;-78
2022/10/30 19:07:59;;;;;;;28.90;20.25;;;17.80;79.90;;;;;;10903213;32;20399;-78
2022/10/30 19:14:01;;;;;;;27.40;20.05;;;17.80;79.90;;;;;;10900710;32;20027;-78
2022/10/30 19:20:03;;;;;;;24.02;20.37;;;17.80;80.20;;;;;;10891851;32;20078;-77
2022/10/30 19:26:05;;;;;;;20.55;17.50;;;17.70;80.40;;;;;;10904831;32;20022;-77
2022/10/30 19:32:08;;;;;;;25.73;20.15;;;17.60;80.40;;;;;;10904773;32;20019;-78
2022/10/30 19:38:12;;;;;;;25.17;21.15;;;17.60;80.40;;;;;;10904552;32;20027;-74
2022/10/30 19:44:14;;;;;;;25.35;17.87;;;17.50;80.50;;;;;;10890700;32;20023;-74
2022/10/30 19:50:37;;;;;;;21.25;16.20;;;17.50;80.50;;;;;;10903843;32;20094;-75
2022/10/30 19:56:42;;;;;;;28.08;18.87;;;17.50;80.50;;;;;;10890755;32;20023;-74
2022/10/30 20:02:45;;;;;;;25.88;18.33;;;17.40;80.50;;;;;;10902632;32;20046;-74
2022/10/30 20:08:47;;;;;;;23.10;15.35;;;17.40;80.60;;;;;;10907670;32;20027;-75
2022/10/30 20:14:51;;;;;;;16.40;10.85;;;17.40;80.60;;;;;;10907157;32;20042;-75
2022/10/30 20:21:04;;;;;;;20.77;16.58;;;17.30;80.60;;;;;;10909491;32;20058;-75
2022/10/30 20:27:06;;;;;;;23.87;18.92;;;17.30;80.80;;;;;;10893699;32;20035;-75
2022/10/30 20:33:11;;;;;;;28.40;17.92;;;17.30;80.90;;;;;;10910102;32;20039;-75
2022/10/30 20:39:13;;;;;;;25.20;13.57;;;17.30;80.90;;;;;;10910256;32;20054;-75
2022/10/30 20:45:19;;;;;;;16.77;12.95;;;17.20;81.00;;;;;;10907874;32;20057;-76
2022/10/30 20:51:21;;;;;;;19.95;17.33;;;17.20;80.90;;;;;;10905934;32;20306;-79
2022/10/30 20:57:24;;;;;;;19.37;14.40;;;17.10;81.00;;;;;;10905921;32;20081;-79
2022/10/30 21:03:26;;;;;;;27.25;14.80;;;17.10;81.20;;;;;;10896570;32;20293;-79
2022/10/30 21:09:28;;;;;;;19.35;14.48;;;17.10;81.20;;;;;;10909599;32;20030;-79
2022/10/30 21:15:30;;;;;;;17.73;13.40;;;17.00;81.20;;;;;;10908408;32;20050;-79
2022/10/30 21:21:32;;;;;;;23.23;16.40;;;17.00;81.30;;;;;;10909156;32;20430;-79
2022/10/30 21:27:35;;;;;;;22.23;17.37;;;17.00;81.40;;;;;;10904855;32;20053;-79
2022/10/30 21:33:37;;;;;;;17.87;15.82;;;17.00;81.60;;;;;;10908821;32;20027;-79
2022/10/30 21:39:44;;;;;;;19.85;14.35;;;16.90;81.60;;;;;;10895288;32;20049;-79
2022/10/30 21:45:47;;;;;;;17.42;14.07;;;16.90;81.50;;;;;;10908014;32;20340;-79
2022/10/30 21:51:49;;;;;;;20.70;18.40;;;16.90;81.60;;;;;;10903692;32;20031;-79
2022/10/30 21:57:51;;;;;;;16.48;13.70;;;16.80;81.60;;;;;;10890237;32;20050;-79
2022/10/30 22:03:53;;;;;;;12.85;10.80;;;16.80;81.60;;;;;;10903568;32;20067;-79
2022/10/30 22:09:55;;;;;;;12.98;10.27;;;16.80;81.70;;;;;;10907624;32;20339;-75
2022/10/30 22:15:57;;;;;;;13.40;10.57;;;16.70;81.80;;;;;;10892557;32;20026;-75
2022/10/30 22:21:59;;;;;;;18.35;13.65;;;16.70;81.90;;;;;;10893467;32;20418;-79
2022/10/30 22:28:01;;;;;;;16.85;13.73;;;16.60;81.90;;;;;;10902273;32;20061;-79
2022/10/30 22:34:17;;;;;;;19.98;14.32;;;16.60;81.90;;;;;;10902484;32;20028;-79
2022/10/30 22:40:19;;;;;;;22.10;16.42;;;16.60;82.00;;;;;;10902338;32;20347;-79
2022/10/30 22:46:23;;;;;;;13.55;11.70;;;16.50;82.10;;;;;;10906120;32;20019;-79
2022/10/30 22:52:25;;;;;;;16.52;11.90;;;16.50;82.20;;;;;;10905866;32;20046;-79
2022/10/30 22:58:28;;;;;;;11.38;8.68;;;16.40;82.20;;;;;;10905700;32;20019;-79
2022/10/30 23:04:31;;;;;;;13.82;11.32;;;16.40;82.10;;;;;;10905361;32;20081;-79
2022/10/30 23:10:33;;;;;;;13.95;12.07;;;16.40;82.20;;;;;;10905491;32;20019;-79
2022/10/30 23:16:35;;;;;;;14.63;9.88;;;16.30;82.20;;;;;;10905211;32;20042;-78
2022/10/30 23:22:37;;;;;;;12.45;8.30;;;16.20;82.30;;;;;;10905280;32;20392;-78
2022/10/30 23:28:39;;;;;;;14.23;11.73;;;16.20;82.30;;;;;;10904845;32;20051;-79
2022/10/30 23:34:41;;;;;;;11.10;8.70;;;16.20;82.30;;;;;;10891411;32;20035;-79
2022/10/30 23:40:43;;;;;;;14.13;9.70;;;16.20;82.40;;;;;;10903953;32;20440;-79
2022/10/30 23:46:45;;;;;;;11.12;9.80;;;16.20;82.40;;;;;;10904314;32;20035;-78
2022/10/30 23:52:47;;;;;;;12.93;10.38;;;16.20;82.40;;;;;;10904080;32;20057;-78
2022/10/30 23:58:51;;;;;;;17.80;13.07;;;16.10;82.30;;;;;;10903979;32;20046;-78
